createdAt,value
2023-11-16T00:00:55.000Z,58.5
2023-11-16T00:02:05.000Z,58.5
2023-11-16T00:03:15.000Z,58.5
2023-11-16T00:04:25.000Z,58.5
2023-11-16T00:05:35.000Z,58.5
2023-11-16T00:06:45.000Z,58.6
2023-11-16T00:07:55.000Z,58.5
2023-11-16T00:09:05.000Z,58.6
2023-11-16T00:10:15.000Z,58.6
2023-11-16T00:11:25.000Z,58.5
2023-11-16T00:12:35.000Z,58.5
2023-11-16T00:13:46.000Z,58.5
2023-11-16T00:14:56.000Z,58.5
2023-11-16T00:16:06.000Z,58.5
2023-11-16T00:17:16.000Z,58.5
2023-11-16T00:18:26.000Z,58.5
2023-11-16T00:19:35.000Z,58.5
2023-11-16T00:20:45.000Z,58.5
2023-11-16T00:21:55.000Z,58.5
2023-11-16T00:23:05.000Z,58.5
2023-11-16T00:24:16.000Z,58.5
2023-11-16T00:25:26.000Z,58.5
2023-11-16T00:26:36.000Z,58.5
2023-11-16T00:27:46.000Z,58.5
2023-11-16T00:28:56.000Z,58.5
2023-11-16T00:30:06.000Z,58.5
2023-11-16T00:31:16.000Z,58.5
2023-11-16T00:32:26.000Z,58.5
2023-11-16T00:33:37.000Z,58.5
2023-11-16T00:34:46.000Z,58.5
2023-11-16T00:35:56.000Z,58.5
2023-11-16T00:37:06.000Z,58.5
2023-11-16T00:38:16.000Z,58.5
2023-11-16T00:39:26.000Z,58.5
2023-11-16T00:40:36.000Z,58.5
2023-11-16T00:41:46.000Z,58.5
2023-11-16T00:42:56.000Z,58.5
2023-11-16T00:44:07.000Z,58.5
2023-11-16T00:45:17.000Z,58.5
2023-11-16T00:46:27.000Z,58.5
2023-11-16T00:47:37.000Z,58.5
2023-11-16T00:48:47.000Z,58.5
2023-11-16T00:49:56.000Z,58.5
2023-11-16T00:51:06.000Z,58.5
2023-11-16T00:52:16.000Z,58.5
2023-11-16T00:53:27.000Z,58.5
2023-11-16T00:54:37.000Z,58.5
2023-11-16T00:55:47.000Z,58.5
2023-11-16T00:56:57.000Z,58.5
2023-11-16T00:58:07.000Z,58.5
2023-11-16T00:59:17.000Z,58.5
2023-11-16T01:00:27.000Z,58.5
2023-11-16T01:01:37.000Z,58.5
2023-11-16T01:02:47.000Z,58.5
2023-11-16T01:03:58.056Z,58.5
2023-11-16T01:05:07.000Z,58.5
2023-11-16T01:06:17.000Z,58.5
2023-11-16T01:07:27.000Z,58.5
2023-11-16T01:08:37.000Z,58.5
2023-11-16T01:09:47.000Z,58.5
2023-11-16T01:10:57.000Z,58.5
2023-11-16T01:12:07.000Z,58.5
2023-11-16T01:13:17.000Z,58.5
2023-11-16T01:14:28.000Z,58.5
2023-11-16T01:15:38.000Z,58.5
2023-11-16T01:16:48.000Z,58.5
2023-11-16T01:17:58.000Z,58.5
2023-11-16T01:19:08.000Z,58.5
2023-11-16T01:20:17.000Z,58.5
2023-11-16T01:21:27.000Z,58.5
2023-11-16T01:22:37.000Z,58.5
2023-11-16T01:23:48.000Z,58.5
2023-11-16T01:24:58.000Z,58.5
2023-11-16T01:26:08.000Z,58.6
2023-11-16T01:27:18.000Z,58.5
2023-11-16T01:28:28.000Z,58.5
2023-11-16T01:29:38.000Z,58.5
2023-11-16T01:30:48.751Z,58.5
2023-11-16T01:31:58.000Z,58.5
2023-11-16T01:33:08.000Z,58.5
2023-11-16T01:34:19.000Z,58.5
2023-11-16T01:35:28.000Z,58.5
2023-11-16T01:36:38.000Z,58.5
2023-11-16T01:37:48.000Z,58.5
2023-11-16T01:38:58.000Z,58.5
2023-11-16T01:40:08.000Z,58.5
2023-11-16T01:41:18.000Z,58.5
2023-11-16T01:42:28.000Z,58.5
2023-11-16T01:43:39.000Z,58.5
2023-11-16T01:44:49.000Z,58.5
2023-11-16T01:45:59.000Z,58.6
2023-11-16T01:47:09.000Z,58.6
2023-11-16T01:48:19.000Z,58.6
2023-11-16T01:49:29.000Z,58.5
2023-11-16T01:50:38.000Z,58.5
2023-11-16T01:51:48.000Z,58.5
2023-11-16T01:52:58.000Z,58.5
2023-11-16T01:54:09.000Z,58.5
2023-11-16T01:55:19.000Z,58.5
2023-11-16T01:56:29.000Z,58.5
2023-11-16T01:57:39.000Z,58.5
2023-11-16T01:58:49.000Z,58.5
2023-11-16T01:59:59.000Z,58.5
2023-11-16T02:01:09.000Z,58.5
2023-11-16T02:02:19.000Z,58.5
2023-11-16T02:03:30.000Z,58.5
2023-11-16T02:04:40.000Z,58.5
2023-11-16T02:05:49.000Z,58.5
2023-11-16T02:06:59.000Z,58.5
2023-11-16T02:08:09.000Z,58.5
2023-11-16T02:09:19.000Z,58.5
2023-11-16T02:10:29.000Z,58.5
2023-11-16T02:11:39.000Z,58.5
2023-11-16T02:12:49.000Z,58.5
2023-11-16T02:14:00.000Z,58.5
2023-11-16T02:15:10.000Z,58.6
2023-11-16T02:16:20.000Z,58.6
2023-11-16T02:17:30.000Z,58.6
2023-11-16T02:18:40.000Z,58.6
2023-11-16T02:19:50.000Z,58.5
2023-11-16T02:20:59.000Z,58.6
2023-11-16T02:22:09.000Z,58.6
2023-11-16T02:23:20.000Z,58.5
2023-11-16T02:24:30.000Z,58.6
2023-11-16T02:25:40.000Z,58.6
2023-11-16T02:26:50.000Z,58.6
2023-11-16T02:28:00.000Z,58.6
2023-11-16T02:29:10.000Z,58.5
2023-11-16T02:30:20.000Z,58.6
2023-11-16T02:31:30.000Z,58.6
2023-11-16T02:32:40.000Z,58.5
2023-11-16T02:33:51.000Z,58.5
2023-11-16T02:35:01.000Z,58.5
2023-11-16T02:36:10.000Z,58.5
2023-11-16T02:37:20.000Z,58.5
2023-11-16T02:38:30.000Z,58.5
2023-11-16T02:39:40.000Z,58.5
2023-11-16T02:40:50.000Z,58.5
2023-11-16T02:42:00.000Z,58.5
2023-11-16T02:43:11.000Z,58.5
2023-11-16T02:44:21.000Z,58.5
2023-11-16T02:45:31.000Z,58.5
2023-11-16T02:46:41.000Z,58.5
2023-11-16T02:47:51.000Z,58.5
2023-11-16T02:49:01.000Z,58.6
2023-11-16T02:50:11.000Z,58.6
2023-11-16T02:51:20.000Z,58.6
2023-11-16T02:52:30.000Z,58.6
2023-11-16T02:53:41.000Z,58.6
2023-11-16T02:54:51.000Z,58.6
2023-11-16T02:56:01.000Z,58.6
2023-11-16T02:57:11.000Z,58.6
2023-11-16T02:58:21.000Z,58.6
2023-11-16T02:59:31.000Z,58.6
2023-11-16T03:00:41.000Z,58.6
2023-11-16T03:01:51.878Z,58.6
2023-11-16T03:03:01.000Z,58.6
2023-11-16T03:04:12.000Z,58.6
2023-11-16T03:05:22.000Z,58.6
2023-11-16T03:06:31.000Z,58.6
2023-11-16T03:07:41.000Z,58.6
2023-11-16T03:08:51.000Z,58.6
2023-11-16T03:10:01.000Z,58.6
2023-11-16T03:11:11.000Z,58.6
2023-11-16T03:12:21.000Z,58.6
2023-11-16T03:13:32.000Z,58.6
2023-11-16T03:14:42.000Z,58.6
2023-11-16T03:15:52.000Z,58.6
2023-11-16T03:17:02.000Z,58.6
2023-11-16T03:18:12.000Z,58.6
2023-11-16T03:19:22.000Z,58.6
2023-11-16T03:20:32.000Z,58.6
2023-11-16T03:21:41.000Z,58.6
2023-11-16T03:22:51.000Z,58.6
2023-11-16T03:24:02.111Z,58.6
2023-11-16T03:25:12.000Z,58.6
2023-11-16T03:26:22.000Z,58.6
2023-11-16T03:27:32.000Z,58.6
2023-11-16T03:28:42.000Z,58.5
2023-11-16T03:29:52.000Z,58.6
2023-11-16T03:31:02.000Z,58.6
2023-11-16T03:32:12.922Z,58.6
2023-11-16T03:33:23.000Z,58.5
2023-11-16T03:34:33.000Z,58.5
2023-11-16T03:35:43.000Z,58.5
2023-11-16T03:36:52.000Z,58.5
2023-11-16T03:38:02.000Z,58.5
2023-11-16T03:39:12.000Z,58.5
2023-11-16T03:40:22.000Z,58.5
2023-11-16T03:41:32.000Z,58.5
2023-11-16T03:42:42.000Z,58.5
2023-11-16T03:43:53.000Z,58.5
2023-11-16T03:45:03.000Z,58.6
2023-11-16T03:46:13.000Z,58.6
2023-11-16T03:47:23.000Z,58.6
2023-11-16T03:48:33.000Z,58.6
2023-11-16T03:49:43.000Z,58.6
2023-11-16T03:50:53.000Z,58.5
2023-11-16T03:52:02.000Z,58.6
2023-11-16T03:53:13.000Z,58.6
2023-11-16T03:54:23.000Z,58.6
2023-11-16T03:55:33.000Z,58.6
2023-11-16T03:56:43.000Z,58.5
2023-11-16T03:57:53.000Z,58.6
2023-11-16T03:59:02.000Z,58.6
2023-11-16T04:00:12.000Z,58.5
2023-11-16T04:01:22.000Z,58.5
2023-11-16T04:02:32.000Z,58.5
2023-11-16T04:03:43.000Z,58.5
2023-11-16T04:04:53.223Z,58.5
2023-11-16T04:06:03.000Z,58.5
2023-11-16T04:07:13.000Z,58.5
2023-11-16T04:08:23.000Z,58.5
2023-11-16T04:09:33.000Z,58.6
2023-11-16T04:10:43.805Z,58.6
2023-11-16T04:11:53.000Z,58.5
2023-11-16T04:13:04.000Z,58.5
2023-11-16T04:14:13.000Z,58.5
2023-11-16T04:15:23.000Z,58.5
2023-11-16T04:16:33.000Z,58.5
2023-11-16T04:17:43.000Z,58.5
2023-11-16T04:18:53.000Z,58.5
2023-11-16T04:20:03.000Z,58.5
2023-11-16T04:21:13.000Z,58.5
2023-11-16T04:22:23.981Z,58.6
2023-11-16T04:23:34.000Z,58.6
2023-11-16T04:24:44.000Z,58.6
2023-11-16T04:25:54.000Z,58.6
2023-11-16T04:27:04.000Z,58.5
2023-11-16T04:28:14.000Z,58.6
2023-11-16T04:29:23.000Z,58.6
2023-11-16T04:30:33.000Z,58.5
2023-11-16T04:31:43.000Z,58.5
2023-11-16T04:32:54.000Z,58.5
2023-11-16T04:34:04.000Z,58.5
2023-11-16T04:35:14.000Z,58.5
2023-11-16T04:36:24.000Z,58.5
2023-11-16T04:37:34.000Z,58.5
2023-11-16T04:38:44.000Z,58.5
2023-11-16T04:39:54.000Z,58.5
2023-11-16T04:41:04.000Z,58.5
2023-11-16T04:42:14.000Z,58.5
2023-11-16T04:43:25.000Z,58.6
2023-11-16T04:44:34.000Z,58.6
2023-11-16T04:45:44.333Z,58.6
2023-11-16T04:46:54.000Z,58.6
2023-11-16T04:48:04.000Z,58.6
2023-11-16T04:49:14.000Z,58.6
2023-11-16T04:50:24.000Z,58.6
2023-11-16T04:51:34.000Z,58.5
2023-11-16T04:52:45.000Z,58.5
2023-11-16T04:53:55.000Z,58.5
2023-11-16T04:55:05.000Z,58.6
2023-11-16T04:56:15.000Z,58.5
2023-11-16T04:57:25.000Z,58.6
2023-11-16T04:58:35.000Z,58.6
2023-11-16T04:59:44.000Z,58.6
2023-11-16T05:00:54.000Z,58.6
2023-11-16T05:02:04.000Z,58.5
2023-11-16T05:03:15.000Z,58.5
2023-11-16T05:04:25.000Z,58.6
2023-11-16T05:05:35.000Z,58.5
2023-11-16T05:06:45.000Z,58.5
2023-11-16T05:07:55.000Z,58.6
2023-11-16T05:09:05.000Z,58.6
2023-11-16T05:10:15.000Z,58.5
2023-11-16T05:11:25.000Z,58.5
2023-11-16T05:12:36.000Z,58.5
2023-11-16T05:13:46.000Z,58.5
2023-11-16T05:14:55.000Z,58.5
2023-11-16T05:16:05.000Z,58.5
2023-11-16T05:17:15.000Z,58.5
2023-11-16T05:18:25.000Z,58.5
2023-11-16T05:19:35.000Z,58.5
2023-11-16T05:20:45.845Z,58.5
2023-11-16T05:21:55.000Z,58.5
2023-11-16T05:23:06.000Z,58.6
2023-11-16T05:24:16.000Z,58.6
2023-11-16T05:25:26.000Z,58.6
2023-11-16T05:26:36.000Z,58.6
2023-11-16T05:27:46.000Z,58.5
2023-11-16T05:28:56.000Z,58.5
2023-11-16T05:30:05.000Z,58.6
2023-11-16T05:31:15.000Z,58.6
2023-11-16T05:32:26.000Z,58.6
2023-11-16T05:33:36.000Z,58.6
2023-11-16T05:34:46.000Z,58.6
2023-11-16T05:35:56.000Z,58.6
2023-11-16T05:37:06.000Z,58.6
2023-11-16T05:38:16.000Z,58.6
2023-11-16T05:39:26.000Z,58.6
2023-11-16T05:40:36.000Z,58.6
2023-11-16T05:41:46.000Z,58.5
2023-11-16T05:42:57.000Z,58.6
2023-11-16T05:44:07.000Z,58.6
2023-11-16T05:45:16.000Z,58.6
2023-11-16T05:46:26.000Z,58.6
2023-11-16T05:47:36.000Z,58.5
2023-11-16T05:48:46.000Z,58.5
2023-11-16T05:49:56.000Z,58.6
2023-11-16T05:51:06.000Z,58.6
2023-11-16T05:52:17.000Z,58.6
2023-11-16T05:53:27.000Z,58.6
2023-11-16T05:54:37.000Z,58.6
2023-11-16T05:55:47.354Z,58.6
2023-11-16T05:56:57.000Z,58.6
2023-11-16T05:58:07.000Z,58.6
2023-11-16T05:59:17.000Z,58.6
2023-11-16T06:00:26.000Z,58.6
2023-11-16T06:01:36.000Z,58.6
2023-11-16T06:02:47.000Z,58.6
2023-11-16T06:03:57.000Z,58.6
2023-11-16T06:05:07.000Z,58.6
2023-11-16T06:06:17.000Z,58.6
2023-11-16T06:07:27.000Z,58.6
2023-11-16T06:08:37.000Z,58.6
2023-11-16T06:09:47.000Z,58.5
2023-11-16T06:10:57.000Z,58.3
2023-11-16T06:12:07.000Z,58.1
2023-11-16T06:13:18.000Z,58
2023-11-16T06:14:28.000Z,58.1
2023-11-16T06:15:37.000Z,58.1
2023-11-16T06:16:47.000Z,58
2023-11-16T06:17:57.000Z,58
2023-11-16T06:19:07.000Z,58
2023-11-16T06:20:17.000Z,58
2023-11-16T06:21:27.000Z,58
2023-11-16T06:22:38.000Z,58
2023-11-16T06:23:48.000Z,58
2023-11-16T06:24:58.000Z,58
2023-11-16T06:26:08.000Z,58
2023-11-16T06:27:18.000Z,58
2023-11-16T06:28:28.000Z,58
2023-11-16T06:29:38.000Z,58.1
2023-11-16T06:30:47.000Z,58.1
2023-11-16T06:31:57.000Z,58.1
2023-11-16T06:33:08.000Z,58.1
2023-11-16T06:34:18.000Z,58.1
2023-11-16T06:35:28.000Z,58.1
2023-11-16T06:36:38.000Z,58.1
2023-11-16T06:37:48.000Z,58.1
2023-11-16T06:38:58.000Z,58
2023-11-16T06:40:08.000Z,58.1
2023-11-16T06:41:18.000Z,58
2023-11-16T06:42:29.000Z,58.1
2023-11-16T06:43:39.000Z,58.1
2023-11-16T06:44:49.000Z,58.1
2023-11-16T06:45:58.000Z,58.1
2023-11-16T06:47:08.000Z,58
2023-11-16T06:48:18.000Z,58.1
2023-11-16T06:49:28.000Z,58.1
2023-11-16T06:50:38.000Z,58.1
2023-11-16T06:51:48.000Z,58.1
2023-11-16T06:52:59.000Z,58.1
2023-11-16T06:54:09.211Z,58.1
2023-11-16T06:55:19.000Z,58.1
2023-11-16T06:56:29.000Z,58.1
2023-11-16T06:57:39.000Z,58.1
2023-11-16T06:58:49.000Z,58.1
2023-11-16T06:59:59.000Z,58.1
2023-11-16T07:01:08.000Z,58
2023-11-16T07:02:19.000Z,58.1
2023-11-16T07:03:29.000Z,58.1
2023-11-16T07:04:39.000Z,58
2023-11-16T07:05:49.391Z,58.1
2023-11-16T07:06:59.000Z,58
2023-11-16T07:08:09.000Z,58.1
2023-11-16T07:09:19.000Z,58
2023-11-16T07:10:29.000Z,58
2023-11-16T07:11:39.000Z,58
2023-11-16T07:12:50.000Z,57.9
2023-11-16T07:14:00.000Z,57.9
2023-11-16T07:15:10.000Z,57.9
2023-11-16T07:16:19.000Z,57.6
2023-11-16T07:17:29.000Z,57.8
2023-11-16T07:18:39.000Z,57.8
2023-11-16T07:19:49.000Z,57.7
2023-11-16T07:20:59.000Z,57.8
2023-11-16T07:22:10.000Z,57.8
2023-11-16T07:23:20.000Z,57.8
2023-11-16T07:24:30.000Z,57.8
2023-11-16T07:25:40.372Z,57.8
2023-11-16T07:26:50.000Z,57.8
2023-11-16T07:28:00.000Z,57.6
2023-11-16T07:29:10.000Z,57.6
2023-11-16T07:30:20.000Z,57.7
2023-11-16T07:31:29.000Z,57.7
2023-11-16T07:32:40.000Z,57.7
2023-11-16T07:33:50.000Z,57.8
2023-11-16T07:35:00.000Z,57.9
2023-11-16T07:36:10.000Z,57.9
2023-11-16T07:37:20.000Z,57.7
2023-11-16T07:38:30.000Z,57.7
2023-11-16T07:39:40.000Z,58
2023-11-16T07:40:50.000Z,57.8
2023-11-16T07:42:01.000Z,57.1
2023-11-16T07:44:21.000Z,57.7
2023-11-16T07:45:31.000Z,57.8
2023-11-16T07:46:40.000Z,57.8
2023-11-16T07:47:50.000Z,57.2
2023-11-16T07:49:00.000Z,57.5
2023-11-16T07:50:10.000Z,57.8
2023-11-16T07:51:20.000Z,57.4
2023-11-16T07:52:31.069Z,57.6
2023-11-16T07:53:40.000Z,57.9
2023-11-16T07:54:50.000Z,57.9
2023-11-16T07:56:00.000Z,57.9
2023-11-16T07:57:10.000Z,57.8
2023-11-16T07:58:20.000Z,57.8
2023-11-16T07:59:30.000Z,57.8
2023-11-16T08:00:40.000Z,57.8
2023-11-16T08:01:51.000Z,57.8
2023-11-16T08:03:01.000Z,57.8
2023-11-16T08:04:11.249Z,57.8
2023-11-16T08:05:21.000Z,57.8
2023-11-16T08:06:31.000Z,57.8
2023-11-16T08:07:41.000Z,57.7
2023-11-16T08:08:50.000Z,57.7
2023-11-16T08:10:00.000Z,57.7
2023-11-16T08:11:10.000Z,57.7
2023-11-16T08:12:21.000Z,57.7
2023-11-16T08:13:31.000Z,57.7
2023-11-16T08:14:41.000Z,57.7
2023-11-16T08:15:51.424Z,57.7
2023-11-16T08:17:01.000Z,57.7
2023-11-16T08:18:11.000Z,57.7
2023-11-16T08:19:21.000Z,57.6
2023-11-16T08:20:31.000Z,57.6
2023-11-16T08:21:42.000Z,57.6
2023-11-16T08:22:52.000Z,57.7
2023-11-16T08:24:01.000Z,57.6
2023-11-16T08:25:11.000Z,57.6
2023-11-16T08:26:21.000Z,57.6
2023-11-16T08:27:31.000Z,57.6
2023-11-16T08:28:41.000Z,57.6
2023-11-16T08:29:51.000Z,57.6
2023-11-16T08:31:01.000Z,57.6
2023-11-16T08:32:12.000Z,57.5
2023-11-16T08:33:22.000Z,57.5
2023-11-16T08:34:32.000Z,57.5
2023-11-16T08:35:42.000Z,57.5
2023-11-16T08:36:52.000Z,57.5
2023-11-16T08:38:02.000Z,57.5
2023-11-16T08:39:11.773Z,57.4
2023-11-16T08:40:21.000Z,57.4
2023-11-16T08:41:32.000Z,57.4
2023-11-16T08:42:42.000Z,57.4
2023-11-16T08:43:52.000Z,57.4
2023-11-16T08:45:02.000Z,57.3
2023-11-16T08:46:12.000Z,57.3
2023-11-16T08:47:22.000Z,57.3
2023-11-16T08:48:32.000Z,57.3
2023-11-16T08:49:42.000Z,57.3
2023-11-16T08:50:52.931Z,57.3
2023-11-16T08:52:03.000Z,57.2
2023-11-16T08:53:13.000Z,57.2
2023-11-16T08:54:22.000Z,57.2
2023-11-16T08:55:32.000Z,57.2
2023-11-16T08:56:42.000Z,57.2
2023-11-16T08:57:52.000Z,57.1
2023-11-16T08:59:02.000Z,57.1
2023-11-16T09:00:12.000Z,57
2023-11-16T09:01:22.000Z,57
2023-11-16T09:02:33.105Z,56.9
2023-11-16T09:03:43.000Z,57
2023-11-16T09:04:53.000Z,57
2023-11-16T09:06:03.000Z,57
2023-11-16T09:07:13.000Z,56.9
2023-11-16T09:08:23.000Z,57.1
2023-11-16T09:09:32.000Z,57.2
2023-11-16T09:10:42.000Z,57.4
2023-11-16T09:11:53.000Z,57.6
2023-11-16T09:13:03.000Z,57.4
2023-11-16T09:14:13.000Z,57.4
2023-11-16T09:15:23.000Z,57.4
2023-11-16T09:16:33.000Z,57.4
2023-11-16T09:17:43.000Z,57.3
2023-11-16T09:18:53.000Z,57.4
2023-11-16T09:20:03.000Z,57.4
2023-11-16T09:21:13.000Z,57.4
2023-11-16T09:22:24.099Z,57.4
2023-11-16T09:23:34.000Z,57.3
2023-11-16T09:24:43.000Z,57.2
2023-11-16T09:25:53.000Z,57.2
2023-11-16T09:27:03.000Z,57.3
2023-11-16T09:28:13.000Z,57.2
2023-11-16T09:29:23.000Z,57.1
2023-11-16T09:30:33.000Z,57.3
2023-11-16T09:31:44.000Z,57.2
2023-11-16T09:32:54.000Z,57.2
2023-11-16T09:34:04.000Z,57.4
2023-11-16T09:35:14.000Z,57.5
2023-11-16T09:36:24.000Z,57.4
2023-11-16T09:37:34.612Z,57.1
2023-11-16T09:38:44.000Z,57
2023-11-16T09:39:53.000Z,57.6
2023-11-16T09:41:03.000Z,57.7
2023-11-16T09:42:14.000Z,57.7
2023-11-16T09:43:24.000Z,57.7
2023-11-16T09:44:34.000Z,57.7
2023-11-16T09:45:44.000Z,57.7
2023-11-16T09:46:54.000Z,57.7
2023-11-16T09:48:04.000Z,57.7
2023-11-16T09:49:14.785Z,57.9
2023-11-16T09:50:24.000Z,57.8
2023-11-16T09:51:35.000Z,57.9
2023-11-16T09:52:45.000Z,57.9
2023-11-16T09:53:55.000Z,57.9
2023-11-16T09:55:04.000Z,57.8
2023-11-16T09:56:14.000Z,57.8
2023-11-16T09:57:24.000Z,57.7
2023-11-16T09:58:34.000Z,57.7
2023-11-16T09:59:44.000Z,57.6
2023-11-16T10:00:54.960Z,57.7
2023-11-16T10:02:05.000Z,57.7
2023-11-16T10:03:15.000Z,57.7
2023-11-16T10:04:25.000Z,57.5
2023-11-16T10:05:35.000Z,57.4
2023-11-16T10:06:45.000Z,57.6
2023-11-16T10:07:55.000Z,57.3
2023-11-16T10:09:05.000Z,57.1
2023-11-16T10:10:14.000Z,57.1
2023-11-16T10:11:25.000Z,57.2
2023-11-16T10:12:35.000Z,57.2
2023-11-16T10:13:45.000Z,57.2
2023-11-16T10:14:55.000Z,57.3
2023-11-16T10:16:05.000Z,57.4
2023-11-16T10:17:15.000Z,57.5
2023-11-16T10:18:25.000Z,57.6
2023-11-16T10:19:35.000Z,57.7
2023-11-16T10:20:45.000Z,57.7
2023-11-16T10:21:56.000Z,57.8
2023-11-16T10:23:06.000Z,57.8
2023-11-16T10:24:16.000Z,57.9
2023-11-16T10:25:25.000Z,57.9
2023-11-16T10:26:35.000Z,58
2023-11-16T10:27:45.000Z,57.8
2023-11-16T10:28:55.000Z,58
2023-11-16T10:30:05.000Z,57.9
2023-11-16T10:31:16.000Z,57.5
2023-11-16T10:32:26.000Z,57.2
2023-11-16T10:33:36.000Z,57.1
2023-11-16T10:34:46.000Z,57
2023-11-16T10:35:56.000Z,57
2023-11-16T10:37:06.000Z,56.8
2023-11-16T10:38:16.000Z,56.5
2023-11-16T10:39:26.000Z,56.5
2023-11-16T10:40:35.000Z,57.2
2023-11-16T10:41:46.000Z,56.9
2023-11-16T10:42:56.000Z,56.7
2023-11-16T10:44:06.000Z,56.6
2023-11-16T10:45:16.000Z,56.5
2023-11-16T10:46:26.000Z,56.4
2023-11-16T10:47:36.644Z,56.2
2023-11-16T10:48:46.000Z,56.1
2023-11-16T10:49:56.000Z,56.1
2023-11-16T10:51:06.991Z,55.9
2023-11-16T10:52:17.000Z,55.8
2023-11-16T10:53:27.000Z,55.7
2023-11-16T10:54:37.000Z,55.7
2023-11-16T10:55:46.000Z,55.6
2023-11-16T10:56:56.000Z,55.5
2023-11-16T10:58:06.000Z,55.4
2023-11-16T10:59:16.000Z,55.4
2023-11-16T11:00:26.000Z,55.2
2023-11-16T11:01:37.000Z,55.1
2023-11-16T11:02:47.000Z,55.2
2023-11-16T11:03:57.000Z,55
2023-11-16T11:05:07.000Z,55
2023-11-16T11:06:17.000Z,55
2023-11-16T11:07:27.000Z,54.8
2023-11-16T11:08:37.000Z,55.2
2023-11-16T11:09:47.000Z,55.1
2023-11-16T11:10:57.000Z,54.8
2023-11-16T11:12:07.000Z,54.8
2023-11-16T11:13:17.000Z,54.6
2023-11-16T11:14:27.000Z,54.3
2023-11-16T11:15:37.000Z,54.2
2023-11-16T11:16:47.000Z,54.1
2023-11-16T11:17:57.689Z,54
2023-11-16T11:19:07.000Z,54
2023-11-16T11:20:17.000Z,54
2023-11-16T11:21:28.000Z,53.9
2023-11-16T11:22:38.152Z,54
2023-11-16T11:23:48.000Z,53.9
2023-11-16T11:24:58.000Z,53.9
2023-11-16T11:26:08.000Z,53.8
2023-11-16T11:27:17.000Z,53.8
2023-11-16T11:28:27.000Z,53.7
2023-11-16T11:29:37.000Z,53.7
2023-11-16T11:30:47.000Z,53.8
2023-11-16T11:31:58.000Z,53.5
2023-11-16T11:33:08.000Z,53.5
2023-11-16T11:34:18.328Z,53.6
2023-11-16T11:35:28.000Z,53.6
2023-11-16T11:36:38.000Z,53.8
2023-11-16T11:37:48.000Z,53.7
2023-11-16T11:38:58.000Z,53.3
2023-11-16T11:40:08.000Z,53.4
2023-11-16T11:41:19.000Z,53.4
2023-11-16T11:42:28.000Z,53.7
2023-11-16T11:43:38.000Z,53.7
2023-11-16T11:44:48.000Z,53.6
2023-11-16T11:45:58.000Z,53.7
2023-11-16T11:47:08.000Z,53.9
2023-11-16T11:48:17.000Z,54.1
2023-11-16T11:49:27.000Z,53.9
2023-11-16T11:50:37.000Z,53.7
2023-11-16T11:51:48.000Z,53.9
2023-11-16T11:52:58.000Z,53.8
2023-11-16T11:54:08.000Z,53.5
2023-11-16T11:55:18.000Z,53.7
2023-11-16T11:56:28.000Z,54
2023-11-16T11:57:38.000Z,54
2023-11-16T11:58:48.000Z,54.1
2023-11-16T11:59:58.000Z,53.8
2023-11-16T12:01:09.000Z,54
2023-11-16T12:02:19.000Z,53.9
2023-11-16T12:03:28.000Z,54
2023-11-16T12:04:38.000Z,53.9
2023-11-16T12:05:48.000Z,54.1
2023-11-16T12:06:58.000Z,54.1
2023-11-16T12:08:08.000Z,54.1
2023-11-16T12:09:18.000Z,53.9
2023-11-16T12:10:28.000Z,54.1
2023-11-16T12:11:39.000Z,54
2023-11-16T12:12:49.000Z,54
2023-11-16T12:13:59.000Z,54.2
2023-11-16T12:15:09.000Z,54.3
2023-11-16T12:16:19.000Z,54.5
2023-11-16T12:17:29.000Z,54.3
2023-11-16T12:18:38.000Z,54.2
2023-11-16T12:19:48.000Z,54.1
2023-11-16T12:20:59.000Z,54.2
2023-11-16T12:22:09.000Z,54.1
2023-11-16T12:23:19.000Z,54.1
2023-11-16T12:24:29.000Z,54.4
2023-11-16T12:25:39.000Z,54.4
2023-11-16T12:26:49.000Z,54.2
2023-11-16T12:27:59.000Z,54.1
2023-11-16T12:29:09.000Z,54.2
2023-11-16T12:30:19.000Z,54.1
2023-11-16T12:31:30.000Z,54
2023-11-16T12:32:40.000Z,54.4
2023-11-16T12:33:49.000Z,54.2
2023-11-16T12:34:59.000Z,54.4
2023-11-16T12:36:09.000Z,54
2023-11-16T12:37:19.000Z,54.2
2023-11-16T12:38:29.000Z,53.9
2023-11-16T12:39:39.000Z,54.4
2023-11-16T12:40:50.000Z,54.1
2023-11-16T12:42:00.000Z,54.2
2023-11-16T12:43:10.000Z,54.2
2023-11-16T12:44:20.365Z,54.4
2023-11-16T12:45:30.000Z,54.4
2023-11-16T12:46:40.000Z,54.4
2023-11-16T12:47:50.000Z,54.2
2023-11-16T12:48:59.000Z,54.6
2023-11-16T12:50:09.000Z,54.4
2023-11-16T12:51:20.000Z,54.4
2023-11-16T12:52:30.000Z,54.4
2023-11-16T12:53:40.000Z,54.4
2023-11-16T12:54:50.000Z,54.4
2023-11-16T12:56:00.539Z,54.4
2023-11-16T12:57:10.000Z,54.4
2023-11-16T12:58:20.000Z,54.6
2023-11-16T12:59:30.000Z,54.6
2023-11-16T13:00:41.000Z,54.7
2023-11-16T13:01:51.000Z,54.4
2023-11-16T13:03:01.000Z,54.9
2023-11-16T13:04:10.000Z,54.7
2023-11-16T13:05:20.000Z,54.8
2023-11-16T13:06:30.000Z,54.8
2023-11-16T13:07:40.714Z,54.8
2023-11-16T13:08:50.000Z,55
2023-11-16T13:10:00.000Z,55
2023-11-16T13:11:11.000Z,55
2023-11-16T13:12:21.000Z,55.1
2023-11-16T13:13:31.000Z,55.2
2023-11-16T13:14:41.000Z,54.8
2023-11-16T13:15:51.000Z,55.1
2023-11-16T13:17:01.000Z,54.8
2023-11-16T13:18:11.000Z,55.3
2023-11-16T13:19:20.000Z,55.1
2023-11-16T13:20:31.000Z,55.1
2023-11-16T13:21:41.000Z,55.3
2023-11-16T13:22:51.000Z,55.3
2023-11-16T13:24:01.000Z,55.2
2023-11-16T13:25:11.000Z,55.4
2023-11-16T13:26:21.000Z,55
2023-11-16T13:27:31.000Z,55.2
2023-11-16T13:28:41.000Z,54.9
2023-11-16T13:29:51.000Z,55
2023-11-16T13:31:02.047Z,54.8
2023-11-16T13:32:12.163Z,55.2
2023-11-16T13:33:22.000Z,54.9
2023-11-16T13:34:31.000Z,54.8
2023-11-16T13:35:41.000Z,54.6
2023-11-16T13:36:51.000Z,54.4
2023-11-16T13:38:01.000Z,54.6
2023-11-16T13:39:11.000Z,54.6
2023-11-16T13:40:21.000Z,54.6
2023-11-16T13:41:32.000Z,54.6
2023-11-16T13:42:42.222Z,54.5
2023-11-16T13:43:52.000Z,54.5
2023-11-16T13:45:02.000Z,54.4
2023-11-16T13:46:12.000Z,54.2
2023-11-16T13:47:22.000Z,54.4
2023-11-16T13:48:32.000Z,54.2
2023-11-16T13:49:41.000Z,54.6
2023-11-16T13:50:52.000Z,54.5
2023-11-16T13:52:02.000Z,54.6
2023-11-16T13:53:12.000Z,54.3
2023-11-16T13:54:22.000Z,54.2
2023-11-16T13:55:32.000Z,54.2
2023-11-16T13:56:42.000Z,54.1
2023-11-16T13:57:52.000Z,54.1
2023-11-16T13:59:02.859Z,54.1
2023-11-16T14:00:12.975Z,54
2023-11-16T14:01:23.000Z,53.9
2023-11-16T14:02:33.000Z,53.9
2023-11-16T14:03:43.000Z,53.9
2023-11-16T14:04:52.000Z,53.8
2023-11-16T14:06:02.571Z,53.8
2023-11-16T14:07:12.000Z,53.8
2023-11-16T14:08:22.000Z,53.7
2023-11-16T14:09:32.000Z,53.7
2023-11-16T14:10:43.000Z,53.6
2023-11-16T14:11:53.000Z,53.6
2023-11-16T14:13:03.000Z,53.5
2023-11-16T14:14:13.000Z,53.5
2023-11-16T14:15:23.000Z,53.6
2023-11-16T14:16:33.000Z,53.6
2023-11-16T14:17:43.000Z,53.7
2023-11-16T14:18:53.000Z,53.5
2023-11-16T14:20:02.000Z,53.5
2023-11-16T14:21:13.000Z,53.6
2023-11-16T14:22:23.208Z,53.6
2023-11-16T14:23:33.000Z,53.6
2023-11-16T14:24:43.000Z,53.5
2023-11-16T14:25:53.000Z,53.6
2023-11-16T14:27:03.000Z,53.5
2023-11-16T14:28:13.000Z,53.4
2023-11-16T14:29:23.903Z,53.4
2023-11-16T14:30:34.019Z,53.4
2023-11-16T14:31:44.000Z,53.4
2023-11-16T14:32:54.000Z,53.3
2023-11-16T14:34:04.366Z,53.5
2023-11-16T14:35:13.498Z,53.3
2023-11-16T14:36:23.000Z,53.1
2023-11-16T14:37:33.729Z,53
2023-11-16T14:38:43.000Z,53.2
2023-11-16T14:39:53.000Z,52.8
2023-11-16T14:41:04.077Z,53
2023-11-16T14:42:14.193Z,53.2
2023-11-16T14:43:24.000Z,53.2
2023-11-16T14:44:34.000Z,53.1
2023-11-16T14:45:44.000Z,53.3
2023-11-16T14:46:54.000Z,53.3
2023-11-16T14:48:04.000Z,53.3
2023-11-16T14:49:14.888Z,53.3
2023-11-16T14:50:24.000Z,53.4
2023-11-16T14:51:34.000Z,53.6
2023-11-16T14:52:44.252Z,53.6
2023-11-16T14:53:54.000Z,53.6
2023-11-16T14:55:04.000Z,53.6
2023-11-16T14:56:14.601Z,53.8
2023-11-16T14:57:24.000Z,53.8
2023-11-16T14:58:34.000Z,53.5
2023-11-16T14:59:44.000Z,53.5
2023-11-16T15:00:55.000Z,53.6
2023-11-16T15:02:05.000Z,53.5
2023-11-16T15:03:15.296Z,53.6
2023-11-16T15:04:25.412Z,53.6
2023-11-16T15:05:34.544Z,53.7
2023-11-16T15:06:44.000Z,53.7
2023-11-16T15:07:54.000Z,53.5
2023-11-16T15:09:04.000Z,53.4
2023-11-16T15:10:15.008Z,53.6
2023-11-16T15:11:25.000Z,53.7
2023-11-16T15:12:35.240Z,53.4
2023-11-16T15:13:45.000Z,53.5
2023-11-16T15:14:55.000Z,53.4
2023-11-16T15:16:05.587Z,53.4
2023-11-16T15:17:15.000Z,53.5
2023-11-16T15:18:25.000Z,53.3
2023-11-16T15:19:35.936Z,53.3
2023-11-16T15:20:45.000Z,53.2
2023-11-16T15:21:55.000Z,53.2
2023-11-16T15:23:05.000Z,53.2
2023-11-16T15:24:15.414Z,53.4
2023-11-16T15:25:25.000Z,53.5
2023-11-16T15:26:35.000Z,53.3
2023-11-16T15:27:45.762Z,53.2
2023-11-16T15:28:55.000Z,53.3
2023-11-16T15:30:06.000Z,53.3
2023-11-16T15:31:16.110Z,53.2
2023-11-16T15:32:26.000Z,53.3
2023-11-16T15:33:36.000Z,53.9
2023-11-16T15:34:46.000Z,53.7
2023-11-16T15:35:55.000Z,53.6
2023-11-16T15:37:05.000Z,53.6
2023-11-16T15:38:15.000Z,53.6